createdAt,value
2022-09-13T00:01:05.821Z,99.90
2022-09-13T00:03:35.220Z,99.90
2022-09-13T00:06:08.548Z,99.90
2022-09-13T00:08:36.633Z,99.90
2022-09-13T00:11:04.624Z,99.90
2022-09-13T00:13:32.574Z,99.90
2022-09-13T00:16:02.850Z,99.90
2022-09-13T00:18:30.796Z,99.90
2022-09-13T00:21:07.056Z,99.90
2022-09-13T00:23:35.120Z,99.90
2022-09-13T00:26:06.888Z,99.90
2022-09-13T00:28:34.797Z,99.90
2022-09-13T00:31:03.020Z,99.90
2022-09-13T00:33:31.040Z,99.90
2022-09-13T00:35:59.213Z,99.90
2022-09-13T00:38:28.969Z,99.90
2022-09-13T00:40:56.882Z,99.90
2022-09-13T00:43:41.935Z,99.90
2022-09-13T00:46:10.104Z,99.90
2022-09-13T00:48:38.745Z,99.90
2022-09-13T00:51:07.308Z,99.90
2022-09-13T00:53:39.064Z,99.90
2022-09-13T00:56:09.818Z,99.90
2022-09-13T00:58:38.774Z,99.90
2022-09-13T01:01:10.092Z,99.90
2022-09-13T01:03:38.755Z,99.90
2022-09-13T01:06:07.931Z,99.90
2022-09-13T01:08:39.600Z,99.90
2022-09-13T01:11:08.516Z,99.90
2022-09-13T01:13:37.087Z,99.90
2022-09-13T01:16:05.099Z,99.90
2022-09-13T01:18:33.228Z,99.90
2022-09-13T01:21:19.215Z,99.90
2022-09-13T01:23:58.060Z,99.90
2022-09-13T01:26:49.971Z,99.90
2022-09-13T01:29:47.905Z,99.90
2022-09-13T01:32:21.223Z,99.90
2022-09-13T01:34:56.512Z,99.90
2022-09-13T01:37:39.223Z,99.90
2022-09-13T01:40:14.214Z,99.90
2022-09-13T01:42:50.351Z,99.90
2022-09-13T01:45:23.323Z,99.90
2022-09-13T01:47:55.136Z,99.90
2022-09-13T01:50:27.851Z,99.90
2022-09-13T01:52:57.856Z,99.90
2022-09-13T01:55:30.523Z,99.90
2022-09-13T01:58:02.638Z,99.90
2022-09-13T02:00:32.107Z,99.90
2022-09-13T02:03:04.288Z,99.90
2022-09-13T02:05:33.571Z,99.90
2022-09-13T02:08:03.512Z,99.90
2022-09-13T02:10:34.344Z,99.90
2022-09-13T02:13:02.947Z,99.90
2022-09-13T02:15:33.298Z,99.90
2022-09-13T02:18:06.572Z,99.90
2022-09-13T02:20:37.201Z,99.90
2022-09-13T02:23:07.381Z,99.90
2022-09-13T02:25:36.958Z,99.90
2022-09-13T02:28:07.851Z,99.90
2022-09-13T02:30:40.370Z,99.90
2022-09-13T02:33:12.678Z,99.90
2022-09-13T02:35:43.667Z,99.90
2022-09-13T02:38:14.082Z,99.90
2022-09-13T02:40:54.811Z,99.90
2022-09-13T02:43:24.240Z,99.90
2022-09-13T02:45:54.593Z,99.90
2022-09-13T02:48:32.420Z,99.90
2022-09-13T02:51:08.095Z,99.90
2022-09-13T02:53:39.892Z,99.90
2022-09-13T02:56:13.320Z,99.90
2022-09-13T02:58:46.089Z,99.90
2022-09-13T03:01:15.166Z,99.90
2022-09-13T03:03:44.994Z,99.90
2022-09-13T03:06:12.918Z,99.90
2022-09-13T03:08:41.119Z,99.90
2022-09-13T03:11:13.468Z,99.90
2022-09-13T03:13:50.727Z,99.90
2022-09-13T03:16:27.952Z,99.90
2022-09-13T03:19:05.363Z,99.90
2022-09-13T03:21:46.260Z,99.90
2022-09-13T03:24:19.304Z,99.90
2022-09-13T03:26:52.722Z,99.90
2022-09-13T03:29:26.139Z,99.90
2022-09-13T03:31:58.955Z,99.90
2022-09-13T03:34:32.423Z,99.90
2022-09-13T03:37:04.847Z,99.90
2022-09-13T03:39:36.570Z,99.90
2022-09-13T03:42:07.474Z,99.90
2022-09-13T03:44:36.755Z,99.90
2022-09-13T03:47:05.238Z,99.90
2022-09-13T03:49:35.061Z,99.90
2022-09-13T03:52:03.246Z,99.90
2022-09-13T03:54:32.610Z,99.90
2022-09-13T03:57:11.397Z,99.90
2022-09-13T03:59:40.270Z,99.90
2022-09-13T04:02:12.056Z,99.90
2022-09-13T04:04:42.697Z,99.90
2022-09-13T04:07:11.399Z,99.90
2022-09-13T04:09:39.706Z,99.90
2022-09-13T04:12:08.350Z,99.90
2022-09-13T04:14:36.243Z,99.90
2022-09-13T04:17:04.197Z,99.90
2022-09-13T04:19:32.677Z,99.90
2022-09-13T04:22:02.195Z,99.90
2022-09-13T04:24:31.207Z,99.90
2022-09-13T04:26:59.587Z,99.90
2022-09-13T04:29:27.762Z,99.90
2022-09-13T04:31:56.458Z,99.90
2022-09-13T04:34:24.475Z,99.90
2022-09-13T04:36:53.729Z,99.90
2022-09-13T04:39:23.790Z,99.90
2022-09-13T04:41:54.817Z,99.90
2022-09-13T04:44:24.354Z,99.90
2022-09-13T04:46:52.733Z,99.90
2022-09-13T04:49:22.029Z,99.90
2022-09-13T04:51:50.034Z,99.90
2022-09-13T04:54:20.579Z,99.90
2022-09-13T04:56:49.982Z,99.90
2022-09-13T04:59:17.935Z,99.90
2022-09-13T05:01:46.025Z,99.90
2022-09-13T05:04:14.038Z,99.90
2022-09-13T05:06:42.038Z,99.90
2022-09-13T05:09:13.608Z,99.90
2022-09-13T05:11:41.607Z,99.90
2022-09-13T05:14:12.300Z,99.90
2022-09-13T05:16:40.219Z,99.90
2022-09-13T05:19:08.348Z,99.90
2022-09-13T05:21:36.287Z,99.90
2022-09-13T05:24:04.339Z,99.90
2022-09-13T05:26:32.835Z,99.90
2022-09-13T05:29:00.901Z,99.90
2022-09-13T05:31:31.411Z,99.90
2022-09-13T05:34:00.303Z,99.90
2022-09-13T05:36:28.527Z,99.90
2022-09-13T05:39:18.590Z,99.90
2022-09-13T05:41:45.418Z,99.90
2022-09-13T05:44:13.991Z,99.90
2022-09-13T05:46:43.998Z,99.90
2022-09-13T05:49:12.788Z,99.90
2022-09-13T05:51:40.743Z,99.90
2022-09-13T05:54:08.721Z,99.90
2022-09-13T05:56:36.598Z,99.90
2022-09-13T05:59:04.508Z,99.90
2022-09-13T06:01:32.373Z,99.90
2022-09-13T06:04:01.771Z,99.90
2022-09-13T06:06:29.630Z,99.90
2022-09-13T06:08:57.780Z,99.90
2022-09-13T06:11:26.579Z,99.90
2022-09-13T06:13:54.610Z,99.90
2022-09-13T06:16:22.635Z,99.90
2022-09-13T06:18:50.875Z,99.90
2022-09-13T06:21:23.762Z,99.90
2022-09-13T06:23:55.152Z,99.90
2022-09-13T06:26:23.750Z,99.90
2022-09-13T06:28:52.595Z,99.90
2022-09-13T06:31:21.314Z,99.90
2022-09-13T06:33:49.312Z,99.90
2022-09-13T06:36:18.663Z,99.90
2022-09-13T06:38:48.777Z,99.90
2022-09-13T06:41:18.746Z,99.90
2022-09-13T06:43:47.530Z,99.90
2022-09-13T06:46:16.345Z,99.90
2022-09-13T06:48:45.338Z,99.90
2022-09-13T06:51:14.281Z,99.90
2022-09-13T06:53:42.672Z,99.90
2022-09-13T06:56:13.494Z,99.90
2022-09-13T06:58:42.197Z,99.90
2022-09-13T07:01:11.538Z,99.90
2022-09-13T07:03:40.178Z,99.90
2022-09-13T07:06:09.049Z,99.90
2022-09-13T07:08:36.911Z,99.90
2022-09-13T07:11:04.866Z,98.40
2022-09-13T07:13:34.262Z,98.00
2022-09-13T07:16:02.879Z,98.90
2022-09-13T07:18:31.035Z,99.90
2022-09-13T07:21:03.651Z,99.90
2022-09-13T07:23:32.210Z,99.90
2022-09-13T07:26:04.490Z,99.90
2022-09-13T07:28:35.596Z,99.70
2022-09-13T07:31:07.612Z,97.40
2022-09-13T07:33:35.582Z,97.90
2022-09-13T07:36:06.508Z,98.00
2022-09-13T07:38:35.147Z,97.80
2022-09-13T07:41:05.188Z,97.80
2022-09-13T07:43:35.086Z,98.70
2022-09-13T07:46:03.690Z,98.40
2022-09-13T07:48:33.639Z,98.60
2022-09-13T07:51:02.471Z,98.80
2022-09-13T07:53:30.901Z,98.50
2022-09-13T07:56:03.534Z,97.80
2022-09-13T07:58:31.568Z,96.40
2022-09-13T08:01:04.477Z,95.70
2022-09-13T08:03:32.377Z,94.50
2022-09-13T08:06:00.235Z,95.40
2022-09-13T08:08:28.153Z,95.30
2022-09-13T08:10:56.004Z,95.50
2022-09-13T08:13:24.471Z,96.90
2022-09-13T08:15:52.700Z,97.30
2022-09-13T08:18:22.095Z,98.00
2022-09-13T08:20:49.990Z,98.20
2022-09-13T08:23:17.857Z,98.90
2022-09-13T08:25:45.723Z,98.70
2022-09-13T08:28:16.059Z,99.40
2022-09-13T08:30:44.607Z,99.90
2022-09-13T08:33:12.895Z,99.90
2022-09-13T08:35:42.324Z,99.90
2022-09-13T08:38:10.436Z,99.90
2022-09-13T08:40:41.316Z,99.90
2022-09-13T08:43:13.375Z,99.90
2022-09-13T08:45:41.564Z,99.90
2022-09-13T08:48:13.279Z,99.90
2022-09-13T08:50:45.050Z,99.90
2022-09-13T08:53:21.250Z,99.90
2022-09-13T08:55:52.471Z,99.90
2022-09-13T08:58:30.121Z,99.90
2022-09-13T09:01:03.025Z,99.90
2022-09-13T09:03:37.616Z,99.90
2022-09-13T09:06:10.464Z,99.90
2022-09-13T09:08:41.394Z,99.90
2022-09-13T09:11:12.005Z,99.90
2022-09-13T09:13:45.733Z,99.90
2022-09-13T09:16:18.217Z,99.90
2022-09-13T09:18:48.778Z,99.90
2022-09-13T09:21:18.674Z,99.90
2022-09-13T09:23:50.462Z,99.90
2022-09-13T09:26:19.559Z,99.90
2022-09-13T09:28:48.533Z,99.90
2022-09-13T09:31:19.618Z,99.90
2022-09-13T09:33:51.908Z,99.90
2022-09-13T09:36:25.000Z,99.90
2022-09-13T09:38:53.039Z,99.90
2022-09-13T09:41:26.933Z,99.90
2022-09-13T09:43:57.818Z,99.90
2022-09-13T09:46:28.774Z,99.90
2022-09-13T09:48:58.782Z,99.90
2022-09-13T09:51:29.158Z,99.90
2022-09-13T09:54:02.039Z,99.90
2022-09-13T09:56:31.562Z,99.90
2022-09-13T09:58:59.449Z,99.90
2022-09-13T10:01:28.360Z,99.90
2022-09-13T10:04:02.340Z,99.90
2022-09-13T10:06:32.122Z,99.90
2022-09-13T10:09:01.918Z,99.90
2022-09-13T10:11:40.566Z,99.40
2022-09-13T10:14:27.510Z,97.40
2022-09-13T10:17:03.971Z,97.90
2022-09-13T10:19:32.434Z,98.90
2022-09-13T10:22:06.908Z,98.70
2022-09-13T10:24:34.992Z,98.90
2022-09-13T10:27:04.112Z,98.10
2022-09-13T10:29:33.034Z,97.70
2022-09-13T10:32:08.465Z,98.30
2022-09-13T10:34:37.779Z,98.00
2022-09-13T10:37:13.835Z,97.90
2022-09-13T10:39:50.288Z,97.50
2022-09-13T10:42:23.487Z,96.90
2022-09-13T10:44:55.700Z,95.20
2022-09-13T10:47:24.690Z,95.50
2022-09-13T10:49:53.800Z,94.70
2022-09-13T10:52:31.105Z,94.10
2022-09-13T10:55:13.896Z,95.00
2022-09-13T10:57:41.978Z,93.80
2022-09-13T11:00:12.270Z,91.10
2022-09-13T11:02:55.063Z,91.10
2022-09-13T11:05:25.508Z,92.10
2022-09-13T11:08:04.763Z,90.40
2022-09-13T11:10:37.107Z,90.20
2022-09-13T11:13:08.625Z,88.10
2022-09-13T11:15:44.285Z,87.40
2022-09-13T11:18:21.308Z,85.30
2022-09-13T11:20:55.178Z,81.10
2022-09-13T11:23:47.171Z,83.30
2022-09-13T11:26:28.648Z,76.60
2022-09-13T11:29:01.411Z,76.20
2022-09-13T11:31:36.102Z,72.40
2022-09-13T11:34:14.259Z,67.90
2022-09-13T11:36:46.786Z,68.00
2022-09-13T11:39:20.438Z,67.00
2022-09-13T11:41:57.608Z,65.00
2022-09-13T11:44:33.562Z,67.40
2022-09-13T11:47:10.758Z,67.90
2022-09-13T11:49:49.712Z,67.50
2022-09-13T11:52:23.153Z,63.10
2022-09-13T11:54:56.483Z,61.90
2022-09-13T11:57:28.108Z,62.70
2022-09-13T11:59:58.569Z,63.70
2022-09-13T12:02:28.758Z,65.90
2022-09-13T12:05:20.437Z,65.20
2022-09-13T12:07:48.815Z,61.80
2022-09-13T12:10:19.209Z,63.40
2022-09-13T12:12:51.183Z,66.40
2022-09-13T12:15:22.020Z,64.60
2022-09-13T12:17:51.156Z,64.70
2022-09-13T12:20:23.387Z,61.40
2022-09-13T12:22:52.553Z,65.20
2022-09-13T12:25:23.383Z,62.30
2022-09-13T12:27:56.749Z,61.20
2022-09-13T12:30:25.670Z,62.30
2022-09-13T12:32:58.665Z,63.50
2022-09-13T12:35:29.782Z,62.70
2022-09-13T12:38:11.520Z,63.80
2022-09-13T12:40:45.646Z,62.40
2022-09-13T12:43:23.038Z,63.60
2022-09-13T12:46:00.990Z,64.40
2022-09-13T12:48:35.060Z,63.50
2022-09-13T12:51:08.312Z,64.40
2022-09-13T12:53:50.319Z,66.70
2022-09-13T12:56:31.214Z,66.10
2022-09-13T12:59:14.043Z,67.10
2022-09-13T13:01:46.611Z,66.50
2022-09-13T13:04:17.678Z,69.10
2022-09-13T13:06:50.613Z,68.20
2022-09-13T13:09:28.466Z,67.00
2022-09-13T13:11:58.544Z,67.10
2022-09-13T13:14:44.239Z,64.60
2022-09-13T13:17:30.522Z,63.00
2022-09-13T13:19:58.390Z,65.10
2022-09-13T13:22:44.842Z,68.80
2022-09-13T13:25:32.213Z,67.80
2022-09-13T13:28:00.482Z,67.30
2022-09-13T13:30:47.127Z,66.20
2022-09-13T13:33:21.137Z,68.20
2022-09-13T13:35:49.398Z,69.70
2022-09-13T13:38:32.824Z,71.10
2022-09-13T13:41:12.765Z,72.90
2022-09-13T13:43:41.208Z,72.40
2022-09-13T13:46:26.729Z,76.10
2022-09-13T13:48:56.582Z,74.80
2022-09-13T13:51:26.122Z,74.60
2022-09-13T13:53:56.996Z,74.00
2022-09-13T13:56:34.703Z,72.70
2022-09-13T13:59:09.086Z,71.40
2022-09-13T14:01:38.280Z,71.90
2022-09-13T14:04:32.497Z,71.50
2022-09-13T14:07:13.182Z,72.80
2022-09-13T14:09:50.644Z,75.20
2022-09-13T14:12:22.475Z,75.80
2022-09-13T14:14:59.954Z,75.20
2022-09-13T14:17:48.036Z,73.20
2022-09-13T14:20:18.398Z,73.60
2022-09-13T14:22:46.406Z,76.40
2022-09-13T14:25:17.151Z,77.90
2022-09-13T14:27:45.325Z,78.90
2022-09-13T14:30:20.316Z,79.60
2022-09-13T14:32:48.948Z,80.00
2022-09-13T14:35:25.412Z,79.20
2022-09-13T14:37:53.682Z,78.40
2022-09-13T14:40:23.310Z,78.80
2022-09-13T14:42:52.310Z,79.60
2022-09-13T14:45:21.596Z,79.50
2022-09-13T14:47:53.668Z,81.70
2022-09-13T14:50:25.406Z,81.00
2022-09-13T14:52:55.582Z,81.50
2022-09-13T14:55:27.519Z,84.10
2022-09-13T14:57:58.450Z,85.30
2022-09-13T15:00:27.272Z,84.50
2022-09-13T15:02:56.192Z,84.70
2022-09-13T15:05:25.315Z,84.30
2022-09-13T15:07:54.626Z,86.40
2022-09-13T15:10:24.035Z,86.20
2022-09-13T15:12:53.527Z,85.60
2022-09-13T15:15:32.980Z,85.00
2022-09-13T15:18:01.741Z,83.70
2022-09-13T15:20:31.039Z,85.00
2022-09-13T15:23:12.144Z,84.00
2022-09-13T15:25:40.082Z,83.60
2022-09-13T15:28:19.540Z,85.30
2022-09-13T15:30:47.507Z,84.80
2022-09-13T15:33:20.176Z,86.20
2022-09-13T15:35:48.460Z,86.80
2022-09-13T15:38:20.364Z,86.30
2022-09-13T15:40:49.220Z,86.30
2022-09-13T15:43:17.199Z,87.60
2022-09-13T15:45:45.143Z,87.90
2022-09-13T15:48:18.969Z,89.30
2022-09-13T15:51:03.436Z,88.90
2022-09-13T15:53:32.828Z,90.20
2022-09-13T15:56:01.979Z,90.50
2022-09-13T15:58:30.336Z,90.80
2022-09-13T16:00:58.491Z,92.20
2022-09-13T16:03:26.688Z,92.00
2022-09-13T16:05:54.884Z,92.80
2022-09-13T16:08:23.860Z,93.20
2022-09-13T16:10:53.651Z,93.20
2022-09-13T16:13:21.659Z,93.40
2022-09-13T16:16:27.304Z,93.50
2022-09-13T16:18:55.315Z,93.70
2022-09-13T16:24:10.590Z,94.10
2022-09-13T16:26:39.469Z,94.60
2022-09-13T16:29:08.376Z,94.80
2022-09-13T16:31:36.786Z,95.10
2022-09-13T16:34:05.078Z,95.70
2022-09-13T16:36:34.189Z,96.50
2022-09-13T16:39:02.568Z,97.00
2022-09-13T16:41:32.156Z,97.10
2022-09-13T16:44:01.997Z,97.20
2022-09-13T16:46:30.956Z,97.60
2022-09-13T16:48:59.787Z,97.60
2022-09-13T16:51:28.080Z,97.80
2022-09-13T16:53:56.363Z,97.90
2022-09-13T16:56:25.925Z,98.10
2022-09-13T16:58:55.796Z,98.20
2022-09-13T17:01:25.499Z,98.50
2022-09-13T17:03:55.044Z,98.80
2022-09-13T17:06:24.579Z,98.90
2022-09-13T17:08:55.459Z,99.00
2022-09-13T17:11:26.313Z,99.70
2022-09-13T17:13:56.702Z,99.80
2022-09-13T17:16:28.580Z,99.90
2022-09-13T17:18:58.445Z,99.90
2022-09-13T17:21:27.567Z,99.90
2022-09-13T17:23:56.360Z,99.90
2022-09-13T17:26:24.587Z,99.90
2022-09-13T17:28:53.208Z,99.90
2022-09-13T17:31:22.840Z,99.90
2022-09-13T17:33:53.214Z,99.90
2022-09-13T17:36:22.153Z,99.90
2022-09-13T17:38:50.793Z,99.90
2022-09-13T17:41:20.512Z,99.90
2022-09-13T17:43:49.140Z,99.90
2022-09-13T17:46:21.370Z,99.90
2022-09-13T17:48:52.486Z,99.90
2022-09-13T17:51:22.279Z,99.90
2022-09-13T17:53:52.074Z,99.90
2022-09-13T17:56:21.352Z,99.90
2022-09-13T17:58:49.675Z,99.90
2022-09-13T18:01:18.401Z,99.90
2022-09-13T18:03:46.599Z,99.90
2022-09-13T18:06:17.556Z,99.90
2022-09-13T18:08:45.691Z,99.90
2022-09-13T18:11:19.451Z,99.90
2022-09-13T18:13:50.717Z,99.90
2022-09-13T18:16:22.680Z,99.90
2022-09-13T18:18:52.265Z,99.90
2022-09-13T18:21:24.382Z,99.90
2022-09-13T18:23:54.269Z,99.90
2022-09-13T18:26:24.674Z,99.90
2022-09-13T18:28:56.049Z,99.90
2022-09-13T18:31:27.762Z,99.90
2022-09-13T18:33:57.958Z,99.90
2022-09-13T18:36:28.651Z,99.90
2022-09-13T18:38:57.986Z,99.90
2022-09-13T18:41:29.237Z,99.90
2022-09-13T18:43:59.551Z,99.90
2022-09-13T18:46:30.402Z,99.90
2022-09-13T18:48:59.414Z,99.90
2022-09-13T18:51:35.127Z,99.90
2022-09-13T18:54:06.688Z,99.90
2022-09-13T18:56:35.750Z,99.90
2022-09-13T18:59:10.676Z,99.90
2022-09-13T19:01:42.460Z,99.90
2022-09-13T19:04:13.547Z,99.90
2022-09-13T19:06:46.010Z,99.90
2022-09-13T19:09:15.397Z,99.90
2022-09-13T19:11:49.942Z,99.90
2022-09-13T19:14:23.180Z,99.90
2022-09-13T19:16:54.960Z,99.90
2022-09-13T19:19:23.458Z,99.90
2022-09-13T19:21:53.426Z,99.90
2022-09-13T19:24:22.830Z,99.90
2022-09-13T19:26:52.728Z,99.90
2022-09-13T19:29:24.380Z,99.90
2022-09-13T19:31:55.965Z,99.90
2022-09-13T19:34:26.292Z,99.90
2022-09-13T19:36:58.604Z,99.90
2022-09-13T19:39:33.780Z,99.90
2022-09-13T19:42:02.765Z,99.90
2022-09-13T19:44:32.314Z,99.90
2022-09-13T19:49:59.306Z,99.90
2022-09-13T19:52:46.799Z,99.90
2022-09-13T19:55:20.594Z,99.90
2022-09-13T19:57:48.741Z,99.90
2022-09-13T20:00:25.084Z,99.90
2022-09-13T20:02:53.367Z,99.90
2022-09-13T20:05:27.432Z,99.90
2022-09-13T20:07:58.673Z,99.90
2022-09-13T20:10:28.754Z,99.90
2022-09-13T20:12:57.815Z,99.90
2022-09-13T20:15:27.979Z,99.90
2022-09-13T20:17:57.109Z,99.90
2022-09-13T20:20:25.896Z,99.90
2022-09-13T20:22:54.224Z,99.90
2022-09-13T20:25:26.508Z,99.90
2022-09-13T20:27:55.322Z,99.90
2022-09-13T20:30:26.161Z,99.90
2022-09-13T20:32:54.696Z,99.90
2022-09-13T20:35:23.304Z,99.90
2022-09-13T20:37:52.108Z,99.90
2022-09-13T20:40:20.454Z,99.90
2022-09-13T20:42:50.076Z,99.90
2022-09-13T20:45:22.009Z,99.90
2022-09-13T20:47:51.629Z,99.90
2022-09-13T20:50:20.404Z,99.90
2022-09-13T20:52:50.196Z,99.90
2022-09-13T20:55:20.511Z,99.90
2022-09-13T20:57:49.984Z,99.90
2022-09-13T21:00:18.342Z,99.90
2022-09-13T21:02:46.529Z,99.90
2022-09-13T21:05:14.728Z,99.90
2022-09-13T21:08:00.191Z,99.90
2022-09-13T21:10:28.986Z,99.90
2022-09-13T21:13:00.349Z,99.90
2022-09-13T21:15:28.543Z,99.90
2022-09-13T21:17:56.717Z,99.90
2022-09-13T21:20:24.847Z,99.90
2022-09-13T21:22:55.178Z,99.90
2022-09-13T21:25:23.299Z,99.90
2022-09-13T21:27:51.963Z,99.90
2022-09-13T21:30:21.736Z,99.90
2022-09-13T21:32:49.817Z,99.90
2022-09-13T21:35:17.799Z,99.90
2022-09-13T21:37:45.932Z,99.90
2022-09-13T21:40:14.201Z,99.90
2022-09-13T21:42:42.280Z,99.90
2022-09-13T21:45:11.142Z,99.90
2022-09-13T21:47:40.680Z,99.90
2022-09-13T21:50:09.977Z,99.90
2022-09-13T21:52:38.195Z,99.90
2022-09-13T21:55:06.923Z,99.90
2022-09-13T21:57:35.228Z,99.90
2022-09-13T22:00:03.775Z,99.90
2022-09-13T22:02:32.961Z,99.90
2022-09-13T22:05:02.640Z,99.90
2022-09-13T22:07:30.830Z,99.90
2022-09-13T22:09:59.021Z,99.90
2022-09-13T22:12:27.180Z,99.90
2022-09-13T22:14:55.763Z,99.90
2022-09-13T22:17:24.457Z,99.90
2022-09-13T22:19:52.561Z,99.90
2022-09-13T22:22:22.035Z,99.90
2022-09-13T22:24:50.099Z,99.90
2022-09-13T22:27:18.199Z,99.90
2022-09-13T22:29:46.735Z,99.90
2022-09-13T22:32:14.831Z,99.90
2022-09-13T22:34:43.358Z,99.90
2022-09-13T22:37:11.529Z,99.90
2022-09-13T22:39:41.157Z,99.90
2022-09-13T22:42:09.579Z,99.90
2022-09-13T22:44:37.699Z,99.90
2022-09-13T22:47:05.997Z,99.90
2022-09-13T22:49:34.087Z,99.90
2022-09-13T22:52:03.087Z,99.90
2022-09-13T22:54:31.199Z,99.90
2022-09-13T22:57:01.019Z,99.90
2022-09-13T22:59:29.086Z,99.90
2022-09-13T23:01:57.246Z,99.90
2022-09-13T23:04:25.364Z,99.90
2022-09-13T23:06:53.453Z,99.90
2022-09-13T23:09:21.696Z,99.90
2022-09-13T23:11:49.888Z,99.90
2022-09-13T23:14:21.056Z,99.90
2022-09-13T23:16:51.397Z,99.90
2022-09-13T23:19:21.304Z,99.90
2022-09-13T23:21:49.689Z,99.90
2022-09-13T23:24:19.240Z,99.90
2022-09-13T23:26:48.308Z,99.90
2022-09-13T23:29:18.403Z,99.90
2022-09-13T23:31:48.857Z,99.90
2022-09-13T23:34:17.724Z,99.90
2022-09-13T23:36:47.136Z,99.90
2022-09-13T23:39:17.681Z,99.90
2022-09-13T23:41:47.086Z,99.90
2022-09-13T23:44:15.902Z,99.90
2022-09-13T23:46:44.806Z,99.90
2022-09-13T23:49:14.420Z,99.90
2022-09-13T23:51:42.705Z,99.90
2022-09-13T23:54:11.025Z,99.90
2022-09-13T23:56:39.191Z,99.90
2022-09-13T23:59:07.610Z,99.90
